Time;durP1;ratioP1;P1;durP2;ratioP2;P2;SDS_P1;SDS_P2;PMS_P1;PMS_P2;Temp;Humidity;BMP_temperature;BMP_pressure;BME280_temperature;BME280_humidity;BME280_pressure;Samples;Min_cycle;Max_cycle;Signal;HPM_P1;HPM_P2
2023/07/13 00:02:04;;;;;;;50.40;19.90;;;;;;;18.86;49.98;99402.00;79686;1291;3013349;-63
2023/07/13 00:04:32;;;;;;;41.40;18.20;;;;;;;18.85;49.90;99396.48;78465;1294;3049795;-64
2023/07/13 00:06:59;;;;;;;17.70;7.70;;;;;;;18.85;49.82;99399.00;79701;1294;3020434;-61
2023/07/13 00:09:25;;;;;;;9.80;4.50;;;;;;;18.84;49.79;99403.28;79651;1290;3011603;-62
2023/07/13 00:11:55;;;;;;;6.20;2.50;;;;;;;18.83;49.69;99399.84;78552;1294;3026312;-62
2023/07/13 00:14:22;;;;;;;7.80;2.20;;;;;;;18.81;50.21;99402.02;79669;1290;3013135;-63
2023/07/13 00:16:51;;;;;;;3.80;2.30;;;;;;;18.79;49.87;99402.75;79132;1294;3011852;-64
2023/07/13 00:19:18;;;;;;;4.20;2.70;;;;;;;18.77;50.17;99402.67;79697;1291;3013184;-62
2023/07/13 00:21:44;;;;;;;7.10;3.90;;;;;;;18.75;50.25;99405.23;79669;1294;3011807;-61
2023/07/13 00:24:23;;;;;;;16.20;6.60;;;;;;;18.73;49.93;99404.02;78401;1294;3027705;-62
2023/07/13 00:26:51;;;;;;;20.70;8.80;;;;;;;18.76;49.99;99406.58;78446;1292;3070491;-63
2023/07/13 00:29:17;;;;;;;18.40;6.70;;;;;;;18.73;49.63;99410.53;79729;1294;3018622;-61
2023/07/13 00:31:46;;;;;;;5.20;2.50;;;;;;;18.70;49.69;99411.95;79743;1294;3011588;-63
2023/07/13 00:34:14;;;;;;;6.30;2.40;;;;;;;18.71;49.50;99416.06;78339;1297;3052622;-64
2023/07/13 00:36:41;;;;;;;2.20;1.40;;;;;;;18.72;48.89;99417.40;79610;1294;3013461;-61
2023/07/13 00:39:07;;;;;;;1.90;1.10;;;;;;;18.74;49.09;99411.91;79613;1291;3011777;-61
2023/07/13 00:41:36;;;;;;;1.50;1.20;;;;;;;18.75;48.69;99415.48;78340;1295;3029161;-61
2023/07/13 00:44:04;;;;;;;2.70;1.10;;;;;;;18.74;48.10;99419.73;79734;1290;3012990;-63
2023/07/13 00:46:34;;;;;;;1.50;0.90;;;;;;;18.73;48.05;99419.05;79115;1290;3011862;-62
2023/07/13 00:49:05;;;;;;;1.60;0.90;;;;;;;18.75;47.87;99417.41;79728;1291;3012982;-66
2023/07/13 00:51:37;;;;;;;2.40;0.90;;;;;;;18.76;47.83;99419.86;78327;1292;3028978;-63
2023/07/13 00:54:05;;;;;;;3.10;0.90;;;;;;;18.76;47.83;99421.11;79604;1291;3011639;-64
2023/07/13 00:56:33;;;;;;;2.40;1.00;;;;;;;18.77;47.47;99423.66;78447;1291;3052858;-63
2023/07/13 00:59:00;;;;;;;1.80;1.00;;;;;;;18.74;47.75;99429.94;79600;1294;3012889;-62
2023/07/13 01:01:28;;;;;;;1.80;1.00;;;;;;;18.76;47.46;99432.86;79515;1291;3013140;-63
2023/07/13 01:03:56;;;;;;;1.40;0.80;;;;;;;18.75;47.95;99434.16;78474;1291;3056758;-63
2023/07/13 01:06:23;;;;;;;1.70;0.90;;;;;;;18.73;48.40;99433.65;79634;1293;3012532;-62
2023/07/13 01:08:50;;;;;;;1.50;0.90;;;;;;;18.72;48.42;99430.90;79672;1291;3011926;-62
2023/07/13 01:11:20;;;;;;;3.30;1.00;;;;;;;18.72;48.42;99430.20;78426;1294;3026682;-62
2023/07/13 01:13:49;;;;;;;1.30;0.90;;;;;;;18.69;48.72;99428.65;79764;1293;3013016;-63
2023/07/13 01:16:23;;;;;;;1.50;0.90;;;;;;;18.68;48.62;99423.64;78522;1290;3069110;-63
2023/07/13 01:18:58;;;;;;;1.20;0.80;;;;;;;18.65;48.58;99422.37;79128;1290;3013056;-63
2023/07/13 01:21:25;;;;;;;2.60;0.90;;;;;;;18.64;48.91;99427.36;79577;1291;3011887;-62
2023/07/13 01:23:53;;;;;;;3.00;0.90;;;;;;;18.63;48.78;99435.85;78516;1293;3057852;-62
2023/07/13 01:26:22;;;;;;;1.30;1.00;;;;;;;18.63;48.75;99437.38;79715;1290;3012907;-64
2023/07/13 01:28:49;;;;;;;1.80;0.90;;;;;;;18.59;49.89;99444.36;79652;1290;3011495;-65
2023/07/13 01:31:17;;;;;;;2.40;1.10;;;;;;;18.56;50.76;99440.40;78470;1294;3052446;-64
2023/07/13 01:33:46;;;;;;;6.40;1.20;;;;;;;18.53;50.95;99440.66;79644;1294;3013146;-63
2023/07/13 01:36:22;;;;;;;2.70;0.90;;;;;;;18.50;50.59;99444.48;78486;1294;3069267;-62
2023/07/13 01:38:49;;;;;;;3.20;1.50;;;;;;;18.47;50.50;99442.11;79668;1294;3013753;-65
2023/07/13 01:41:15;;;;;;;4.80;1.10;;;;;;;18.46;51.12;99439.73;79732;1294;3011632;-63
2023/07/13 01:43:47;;;;;;;2.70;1.50;;;;;;;18.47;51.03;99440.85;78445;1291;3052326;-63
2023/07/13 01:46:13;;;;;;;3.00;1.90;;;;;;;18.46;51.72;99440.08;79776;1294;3012880;-64
2023/07/13 01:48:41;;;;;;;6.50;3.00;;;;;;;18.45;51.53;99435.88;79618;1291;3011603;-64
2023/07/13 01:51:09;;;;;;;5.00;2.90;;;;;;;18.43;52.27;99431.67;78486;1294;3069807;-63
2023/07/13 01:53:35;;;;;;;7.50;3.00;;;;;;;18.39;52.76;99427.21;79625;1295;3011423;-63
2023/07/13 01:56:02;;;;;;;10.70;3.10;;;;;;;18.37;52.97;99423.75;79584;1294;3011718;-63
2023/07/13 01:58:30;;;;;;;7.90;3.20;;;;;;;18.32;53.94;99422.92;78331;1294;3026609;-63
2023/07/13 02:00:57;;;;;;;8.80;3.00;;;;;;;18.28;54.46;99427.35;79590;1297;3018928;-63
2023/07/13 02:03:23;;;;;;;8.20;2.70;;;;;;;18.29;53.64;99425.14;79666;1294;3011521;-63
2023/07/13 02:05:52;;;;;;;7.70;3.40;;;;;;;18.31;52.59;99426.42;78372;1294;3027885;-62
2023/07/13 02:08:19;;;;;;;7.60;2.60;;;;;;;18.30;52.97;99434.95;79647;1291;3013437;-63
2023/07/13 02:10:47;;;;;;;5.90;2.90;;;;;;;18.26;52.10;99440.12;79642;1291;3011708;-65
2023/07/13 02:13:14;;;;;;;17.30;11.10;;;;;;;18.30;50.99;99441.53;78400;1291;3052543;-63
2023/07/13 02:15:41;;;;;;;5.90;4.60;;;;;;;18.32;52.65;99446.05;79628;1294;3013779;-62
2023/07/13 02:18:07;;;;;;;6.10;2.40;;;;;;;18.42;51.66;99448.23;79648;1295;3011664;-61
2023/07/13 02:20:35;;;;;;;4.60;2.30;;;;;;;18.58;50.31;99447.98;78379;1291;3028578;-63
2023/07/13 02:23:02;;;;;;;4.10;2.60;;;;;;;18.63;52.20;99448.22;79723;1291;3013362;-62
2023/07/13 02:25:29;;;;;;;6.00;2.60;;;;;;;18.56;54.28;99451.17;79659;1290;3011544;-64
2023/07/13 02:27:57;;;;;;;5.00;2.50;;;;;;;18.58;53.88;99449.39;78318;1295;3028747;-63
2023/07/13 02:30:24;;;;;;;6.40;2.80;;;;;;;18.65;53.00;99439.56;79698;1297;3015229;-63
2023/07/13 02:32:58;;;;;;;5.70;1.90;;;;;;;18.65;52.91;99441.52;78399;1296;3052247;-62
2023/07/13 02:35:25;;;;;;;4.80;2.00;;;;;;;18.63;51.68;99440.94;79575;1291;3011947;-64
2023/07/13 02:37:54;;;;;;;5.40;2.30;;;;;;;18.62;52.62;99443.52;79137;1291;3011625;-63
2023/07/13 02:40:21;;;;;;;6.70;2.10;;;;;;;18.56;52.56;99439.84;79660;1291;3018602;-61
2023/07/13 02:42:47;;;;;;;7.10;2.90;;;;;;;18.56;52.92;99439.67;79734;1296;3011677;-64
2023/07/13 02:45:15;;;;;;;16.90;4.90;;;;;;;18.47;54.87;99447.20;78551;1296;3026480;-61
2023/07/13 02:47:42;;;;;;;8.30;3.70;;;;;;;18.34;55.87;99451.49;79626;1294;3012752;-63
2023/07/13 02:50:09;;;;;;;14.90;4.80;;;;;;;18.32;55.90;99448.84;79643;1297;3011673;-62
2023/07/13 02:52:37;;;;;;;12.10;4.80;;;;;;;18.33;55.67;99454.94;78345;1292;3029080;-63
2023/07/13 02:55:04;;;;;;;18.20;6.70;;;;;;;18.22;56.05;99455.58;79576;1297;3013189;-62
2023/07/13 02:57:32;;;;;;;158.50;42.70;;;;;;;18.11;56.56;99465.34;79725;1291;3011778;-64
2023/07/13 03:00:05;;;;;;;45.60;14.00;;;;;;;18.05;56.87;99467.97;78504;1295;3051835;-62
2023/07/13 03:02:32;;;;;;;25.60;9.90;;;;;;;18.01;57.19;99471.13;79456;1296;3011898;-64
2023/07/13 03:05:00;;;;;;;19.30;7.40;;;;;;;17.93;56.97;99469.56;78442;1297;3027871;-63
2023/07/13 03:07:26;;;;;;;21.20;7.60;;;;;;;17.87;57.22;99472.10;79677;1292;3018177;-62
2023/07/13 03:09:56;;;;;;;23.00;8.00;;;;;;;17.87;57.36;99471.14;79629;1295;3011570;-64
2023/07/13 03:12:25;;;;;;;21.60;6.30;;;;;;;17.82;58.00;99472.84;78456;1291;3047992;-61
2023/07/13 03:14:52;;;;;;;13.90;7.60;;;;;;;17.75;58.36;99476.17;79717;1291;3013084;-63
2023/07/13 03:17:18;;;;;;;22.30;7.90;;;;;;;17.67;58.34;99479.74;79654;1295;3011638;-63
2023/07/13 03:19:49;;;;;;;23.20;8.90;;;;;;;17.71;58.20;99480.26;78316;1296;3026807;-63
2023/07/13 03:22:19;;;;;;;23.90;8.70;;;;;;;17.66;58.00;99477.64;79682;1291;3011793;-62
2023/07/13 03:24:48;;;;;;;24.70;8.20;;;;;;;17.67;58.06;99477.06;78385;1295;3052173;-64
2023/07/13 03:27:17;;;;;;;16.20;7.10;;;;;;;17.78;57.34;99472.34;79561;1291;3013239;-63
2023/07/13 03:29:46;;;;;;;19.50;7.10;;;;;;;17.75;57.90;99471.86;79142;1295;3011710;-62
2023/07/13 03:32:13;;;;;;;24.00;8.10;;;;;;;17.73;58.17;99469.23;79614;1291;3013356;-63
2023/07/13 03:34:41;;;;;;;21.70;6.60;;;;;;;17.68;58.25;99470.77;79682;1296;3011810;-64
2023/07/13 03:37:09;;;;;;;18.40;6.50;;;;;;;17.79;57.32;99473.12;78344;1297;3052634;-63
2023/07/13 03:39:36;;;;;;;17.60;6.70;;;;;;;17.80;57.42;99474.98;79652;1294;3014452;-64
2023/07/13 03:42:03;;;;;;;19.50;6.20;;;;;;;17.84;57.27;99475.67;79592;1291;3011704;-63
2023/07/13 03:44:31;;;;;;;16.70;5.90;;;;;;;17.85;57.44;99474.02;78398;1295;3049443;-63
2023/07/13 03:46:58;;;;;;;12.50;5.00;;;;;;;17.92;57.25;99480.64;79636;1291;3013100;-64
2023/07/13 03:49:25;;;;;;;10.30;4.60;;;;;;;17.95;57.35;99479.88;79644;1291;3011644;-62
2023/07/13 03:51:52;;;;;;;13.00;5.10;;;;;;;17.96;57.70;99486.52;78411;1294;3026102;-63
2023/07/13 03:54:20;;;;;;;11.20;4.60;;;;;;;17.93;57.98;99482.34;79679;1295;3014736;-62
2023/07/13 03:56:46;;;;;;;14.00;4.30;;;;;;;17.96;57.78;99484.73;79581;1291;3011655;-63
2023/07/13 03:59:14;;;;;;;10.40;4.00;;;;;;;18.00;57.58;99487.00;78461;1295;3048696;-61
2023/07/13 04:01:41;;;;;;;11.00;4.50;;;;;;;18.05;57.55;99482.64;79780;1291;3013510;-62
2023/07/13 04:04:08;;;;;;;13.40;5.10;;;;;;;18.04;57.78;99483.26;79642;1295;3014114;-62
2023/07/13 04:06:35;;;;;;;12.90;5.10;;;;;;;17.99;58.08;99490.86;75732;1295;3028150;-62
2023/07/13 04:09:05;;;;;;;19.10;5.20;;;;;;;18.05;58.26;99491.67;79723;1290;3013177;-62
2023/07/13 04:11:36;;;;;;;18.20;5.30;;;;;;;18.08;57.78;99488.42;79226;1291;3013221;-63
2023/07/13 04:14:02;;;;;;;10.60;4.60;;;;;;;18.10;57.85;99489.52;79634;1291;3012901;-65
2023/07/13 04:16:29;;;;;;;21.10;5.40;;;;;;;18.22;57.74;99477.73;79661;1291;3011576;-64
2023/07/13 04:18:59;;;;;;;21.50;6.20;;;;;;;18.33;57.29;99481.54;78499;1291;3051179;-62
2023/07/13 04:21:27;;;;;;;16.50;6.20;;;;;;;18.35;57.56;99481.93;79608;1294;3013559;-64
2023/07/13 04:23:55;;;;;;;21.40;6.50;;;;;;;18.31;57.22;99492.15;78406;1297;3025963;-62
2023/07/13 04:26:22;;;;;;;18.00;6.70;;;;;;;18.28;57.92;99499.88;79608;1291;3013671;-62
2023/07/13 04:28:50;;;;;;;24.90;7.20;;;;;;;18.33;57.78;99492.70;79783;1295;3011638;-64
2023/07/13 04:31:18;;;;;;;20.00;7.00;;;;;;;18.30;58.34;99494.06;78401;1295;3049412;-64
2023/07/13 04:33:44;;;;;;;19.40;7.30;;;;;;;18.34;58.19;99496.38;79659;1290;3019203;-61
2023/07/13 04:36:11;;;;;;;21.60;7.70;;;;;;;18.39;57.95;99491.44;79560;1296;3013260;-63
2023/07/13 04:38:39;;;;;;;15.80;6.90;;;;;;;18.39;57.41;99490.85;78424;1291;3028064;-63
2023/07/13 04:41:06;;;;;;;15.70;6.20;;;;;;;18.42;57.36;99493.09;79626;1290;3018591;-63
2023/07/13 04:43:33;;;;;;;16.00;6.20;;;;;;;18.48;56.45;99498.36;79654;1291;3011654;-63
2023/07/13 04:46:08;;;;;;;20.20;8.20;;;;;;;18.53;56.27;99498.86;78415;1291;3049809;-61
2023/07/13 04:48:37;;;;;;;19.80;7.00;;;;;;;18.58;56.11;99501.90;78390;1292;3054004;-62
2023/07/13 04:51:03;;;;;;;18.00;7.00;;;;;;;18.66;56.05;99508.23;79641;1290;3013663;-63
2023/07/13 04:53:32;;;;;;;18.30;7.00;;;;;;;18.76;55.95;99512.07;79586;1291;3011615;-63
2023/07/13 04:56:00;;;;;;;13.70;6.40;;;;;;;18.87;55.67;99515.73;78553;1296;3068884;-62
2023/07/13 04:58:27;;;;;;;13.40;5.60;;;;;;;18.96;55.49;99511.84;79626;1290;3013003;-63
2023/07/13 05:00:58;;;;;;;14.20;5.50;;;;;;;18.98;55.04;99510.06;79677;1291;3011628;-65
2023/07/13 05:03:26;;;;;;;10.80;5.20;;;;;;;19.04;54.97;99510.04;78350;1291;3053996;-64
2023/07/13 05:05:57;;;;;;;11.60;5.20;;;;;;;19.10;54.39;99508.09;79592;1291;3013664;-63
2023/07/13 05:08:25;;;;;;;11.60;6.10;;;;;;;19.17;54.49;99507.17;78431;1296;3052974;-64
2023/07/13 05:10:52;;;;;;;13.70;5.00;;;;;;;19.28;54.31;99509.30;79842;1291;3013373;-63
2023/07/13 05:13:19;;;;;;;14.00;5.20;;;;;;;19.42;55.13;99511.52;79610;1291;3011637;-62
2023/07/13 05:15:58;;;;;;;12.40;4.40;;;;;;;19.45;53.58;99514.99;78493;1295;3049275;-63
2023/07/13 05:18:26;;;;;;;9.60;4.40;;;;;;;19.47;53.94;99511.30;78375;1291;3053290;-63
2023/07/13 05:21:04;;;;;;;12.40;4.00;;;;;;;19.54;53.95;99512.38;79603;1297;3011862;-62
2023/07/13 05:23:33;;;;;;;10.10;5.40;;;;;;;19.64;53.52;99514.23;78441;1295;3052968;-62
2023/07/13 05:26:00;;;;;;;12.00;5.00;;;;;;;19.71;53.59;99515.86;79782;1296;3012957;-63
2023/07/13 05:30:11;;;;;;;17.20;7.50;;;;;;;19.87;53.14;99510.20;80078;1299;3013517;-64
2023/07/13 05:32:38;;;;;;;37.50;12.60;;;;;;;19.94;52.35;99505.64;79122;1304;3011959;-63
2023/07/13 05:35:07;;;;;;;31.20;13.70;;;;;;;20.05;51.34;99501.12;78811;1302;3011878;-63
2023/07/13 05:37:34;;;;;;;36.90;14.10;;;;;;;20.15;51.98;99502.30;79222;1305;3013118;-64
2023/07/13 05:40:01;;;;;;;15.70;7.50;;;;;;;20.15;49.33;99499.27;79188;1299;3011482;-65
2023/07/13 05:42:30;;;;;;;15.70;6.60;;;;;;;20.17;50.21;99499.09;75796;1304;3027191;-64
2023/07/13 05:44:57;;;;;;;13.50;5.40;;;;;;;20.21;48.45;99497.73;79319;1299;3016145;-61
2023/07/13 05:47:24;;;;;;;18.10;7.10;;;;;;;20.21;47.98;99495.14;79529;1297;3011624;-64
2023/07/13 05:49:52;;;;;;;16.70;6.70;;;;;;;20.33;48.71;99491.24;78030;1299;3051137;-64
2023/07/13 05:52:18;;;;;;;17.80;5.70;;;;;;;20.42;48.07;99489.43;79248;1301;3013582;-64
2023/07/13 05:54:45;;;;;;;16.70;6.00;;;;;;;20.47;47.85;99489.34;79218;1298;3011677;-64
2023/07/13 05:57:13;;;;;;;20.50;6.90;;;;;;;20.54;48.32;99494.59;78023;1301;3028842;-62
2023/07/13 05:59:39;;;;;;;10.90;4.50;;;;;;;20.65;48.42;99490.18;79254;1301;3013684;-64
2023/07/13 06:02:08;;;;;;;22.30;7.20;;;;;;;20.74;49.07;99488.73;79302;1297;3011666;-63
2023/07/13 06:04:36;;;;;;;12.50;4.70;;;;;;;20.72;49.09;99491.61;78055;1301;3050348;-63
2023/07/13 06:07:04;;;;;;;8.50;4.00;;;;;;;20.68;48.03;99496.59;79319;1301;3012973;-63
2023/07/13 06:09:31;;;;;;;7.60;3.50;;;;;;;20.74;48.06;99499.58;79271;1298;3012791;-61
2023/07/13 06:11:59;;;;;;;12.00;3.70;;;;;;;20.82;48.18;99505.73;78115;1301;3028125;-63
2023/07/13 06:14:26;;;;;;;17.70;4.00;;;;;;;20.85;48.37;99507.78;79299;1299;3013307;-62
2023/07/13 06:16:52;;;;;;;6.70;3.40;;;;;;;20.87;48.42;99509.66;79254;1301;3011647;-64
2023/07/13 06:19:20;;;;;;;6.60;3.40;;;;;;;20.98;48.34;99509.02;78048;1301;3026037;-62
2023/07/13 06:21:47;;;;;;;11.10;3.20;;;;;;;21.03;48.74;99506.40;79232;1301;3013450;-63
2023/07/13 06:24:13;;;;;;;10.80;3.80;;;;;;;21.12;49.04;99505.44;79300;1301;3011466;-62
2023/07/13 06:26:41;;;;;;;7.00;3.50;;;;;;;21.25;48.97;99504.27;78053;1296;3029042;-62
2023/07/13 06:29:08;;;;;;;4.60;2.90;;;;;;;21.32;47.72;99511.06;79447;1295;3013165;-63
2023/07/13 06:31:35;;;;;;;4.20;2.60;;;;;;;21.39;46.98;99503.34;79277;1295;3011841;-62
2023/07/13 06:34:02;;;;;;;3.90;2.50;;;;;;;21.48;46.37;99500.66;78190;1295;3027270;-62
2023/07/13 06:36:29;;;;;;;7.20;2.70;;;;;;;21.60;45.79;99504.92;79290;1300;3013234;-62
2023/07/13 06:38:56;;;;;;;5.60;2.60;;;;;;;21.62;45.89;99508.48;79354;1301;3013633;-62
2023/07/13 06:41:26;;;;;;;10.20;2.60;;;;;;;21.72;45.64;99512.60;78073;1299;3028745;-65
2023/07/13 06:43:53;;;;;;;3.50;2.40;;;;;;;21.85;44.42;99504.36;79355;1301;3013223;-63
2023/07/13 06:46:22;;;;;;;9.40;2.60;;;;;;;21.96;44.78;99510.34;78841;1296;3011769;-63
2023/07/13 06:48:49;;;;;;;6.50;2.30;;;;;;;21.96;44.32;99509.13;79470;1301;3013676;-63
2023/07/13 06:51:16;;;;;;;4.10;2.10;;;;;;;22.08;44.10;99505.16;79373;1300;3011893;-62
2023/07/13 06:53:44;;;;;;;10.20;2.60;;;;;;;22.09;44.12;99507.70;78373;1301;3026064;-63
2023/07/13 06:56:11;;;;;;;6.00;2.60;;;;;;;22.09;44.37;99508.73;79649;1295;3013342;-65
2023/07/13 06:58:38;;;;;;;6.30;2.10;;;;;;;22.16;43.91;99508.57;79407;1298;3013121;-64
2023/07/13 07:01:06;;;;;;;5.10;2.10;;;;;;;22.29;43.77;99513.91;78106;1301;3049559;-64
2023/07/13 07:03:32;;;;;;;7.80;2.20;;;;;;;22.45;43.72;99519.19;79258;1301;3013571;-64
2023/07/13 07:06:16;;;;;;;7.10;2.00;;;;;;;22.41;43.72;99515.29;79301;1295;3013605;-62
2023/07/13 07:08:45;;;;;;;3.10;2.00;;;;;;;22.44;43.16;99513.73;78143;1300;3053666;-63
2023/07/13 07:11:13;;;;;;;5.70;2.50;;;;;;;22.57;42.90;99499.13;79353;1301;3013586;-62
2023/07/13 07:13:40;;;;;;;8.10;2.60;;;;;;;22.65;42.83;99491.68;79480;1296;3011611;-66
2023/07/13 07:16:08;;;;;;;2.90;1.90;;;;;;;22.71;43.40;99485.11;78252;1301;3050197;-67
2023/07/13 07:18:36;;;;;;;5.30;2.20;;;;;;;22.82;43.25;99485.72;79477;1295;3014806;-65
2023/07/13 07:21:02;;;;;;;4.20;2.20;;;;;;;22.89;43.19;99482.64;79393;1295;3011698;-66
2023/07/13 07:23:31;;;;;;;6.30;2.30;;;;;;;22.94;42.93;99486.98;78216;1296;3053392;-65
2023/07/13 07:25:57;;;;;;;4.20;1.80;;;;;;;22.92;42.67;99488.76;79595;1300;3020977;-64
2023/07/13 07:28:24;;;;;;;3.90;1.70;;;;;;;23.02;41.72;99476.57;79314;1299;3011692;-64
2023/07/13 07:30:53;;;;;;;4.00;2.10;;;;;;;23.17;41.55;99473.19;78253;1295;3026628;-62
2023/07/13 07:33:19;;;;;;;3.70;2.30;;;;;;;23.22;42.02;99475.52;79260;1301;3018798;-65
2023/07/13 07:35:46;;;;;;;3.60;1.80;;;;;;;23.28;40.58;99474.64;79383;1299;3011450;-66
2023/07/13 07:38:14;;;;;;;6.40;2.20;;;;;;;23.43;40.76;99468.63;77963;1301;3026011;-63
2023/07/13 07:40:41;;;;;;;3.80;2.00;;;;;;;23.55;40.50;99476.54;79202;1299;3013687;-62
2023/07/13 07:43:08;;;;;;;3.10;1.70;;;;;;;23.54;40.15;99483.81;79270;1300;3011917;-63
2023/07/13 07:45:37;;;;;;;5.10;1.70;;;;;;;23.67;39.55;99482.11;78119;1300;3048992;-63
2023/07/13 07:48:05;;;;;;;2.20;1.70;;;;;;;23.61;39.08;99482.45;79266;1295;3013623;-64
2023/07/13 07:50:31;;;;;;;3.70;2.00;;;;;;;23.76;39.32;99480.59;79343;1296;3011614;-63
2023/07/13 07:53:02;;;;;;;3.50;1.60;;;;;;;23.79;39.40;99478.09;78044;1300;3052250;-61
2023/07/13 07:55:29;;;;;;;5.20;1.80;;;;;;;23.81;39.05;99468.05;79281;1298;3011576;-63
2023/07/13 07:57:59;;;;;;;4.10;1.60;;;;;;;23.78;39.13;99475.34;79019;1295;3013503;-63
2023/07/13 08:00:25;;;;;;;3.80;1.40;;;;;;;23.88;38.92;99473.06;79338;1295;3013482;-65
2023/07/13 08:02:52;;;;;;;5.30;2.00;;;;;;;24.00;38.92;99482.11;79422;1295;3012955;-64
2023/07/13 08:05:20;;;;;;;5.70;2.30;;;;;;;24.07;39.22;99481.95;78140;1296;3026577;-64
2023/07/13 08:07:47;;;;;;;4.60;2.00;;;;;;;24.05;38.94;99484.63;79370;1301;3013464;-65
2023/07/13 08:10:13;;;;;;;6.10;2.30;;;;;;;24.15;39.07;99483.44;79346;1298;3011591;-64
2023/07/13 08:12:41;;;;;;;2.50;1.60;;;;;;;24.10;39.17;99490.02;78068;1301;3069472;-63
2023/07/13 08:15:13;;;;;;;5.90;2.00;;;;;;;24.15;39.58;99489.46;79315;1298;3013433;-63
2023/07/13 08:17:41;;;;;;;2.60;1.70;;;;;;;24.30;39.28;99493.60;78239;1300;3049990;-64
2023/07/13 08:20:09;;;;;;;2.40;1.50;;;;;;;24.46;39.03;99494.63;79319;1295;3019173;-65
2023/07/13 08:22:36;;;;;;;3.50;1.80;;;;;;;24.51;38.37;99491.48;79424;1300;3011613;-64
2023/07/13 08:25:04;;;;;;;3.70;1.90;;;;;;;24.55;38.76;99486.91;78103;1300;3053389;-61
2023/07/13 08:27:32;;;;;;;4.30;1.40;;;;;;;24.57;38.21;99493.67;79446;1295;3013672;-63
2023/07/13 08:29:59;;;;;;;2.50;1.80;;;;;;;24.76;38.47;99484.81;79251;1295;3011742;-63
2023/07/13 08:32:27;;;;;;;6.80;1.70;;;;;;;24.77;38.67;99494.67;78140;1300;3049638;-63
2023/07/13 08:34:54;;;;;;;5.60;1.80;;;;;;;24.65;38.66;99499.70;79252;1296;3020983;-64
2023/07/13 08:37:20;;;;;;;3.10;1.80;;;;;;;24.58;38.30;99499.45;79253;1300;3011665;-65
2023/07/13 08:39:49;;;;;;;2.30;1.80;;;;;;;24.74;38.10;99491.08;78274;1300;3026544;-64
2023/07/13 08:42:37;;;;;;;5.50;1.70;;;;;;;24.70;38.20;99497.45;79305;1295;3013214;-62
2023/07/13 08:45:17;;;;;;;4.20;1.60;;;;;;;24.77;38.14;99499.92;78122;1297;3055659;-64
2023/07/13 08:47:48;;;;;;;6.30;1.90;;;;;;;24.90;38.49;99499.10;78034;1301;3048821;-64
2023/07/13 08:50:18;;;;;;;3.90;2.10;;;;;;;25.02;38.52;99489.02;79360;1295;3011661;-64
2023/07/13 08:52:46;;;;;;;2.80;1.40;;;;;;;25.09;38.67;99496.26;78042;1300;3051271;-62
2023/07/13 08:55:25;;;;;;;7.30;1.90;;;;;;;24.94;37.84;99500.19;79318;1295;3019191;-63
2023/07/13 08:57:59;;;;;;;9.90;1.80;;;;;;;24.84;38.82;99486.91;78024;1300;3068515;-64
2023/07/13 09:00:37;;;;;;;4.20;1.60;;;;;;;24.94;38.72;99496.13;79325;1295;3011613;-62
2023/07/13 09:03:05;;;;;;;2.50;1.60;;;;;;;25.02;38.59;99497.78;78148;1295;3056526;-65
2023/07/13 09:05:34;;;;;;;5.00;1.90;;;;;;;25.08;38.19;99496.83;79281;1295;3013719;-64
2023/07/13 09:08:19;;;;;;;4.30;2.00;;;;;;;25.22;38.69;99492.98;79294;1295;3011480;-64
2023/07/13 09:11:06;;;;;;;4.10;2.30;;;;;;;25.36;38.40;99501.20;78128;1300;3053616;-63
2023/07/13 09:13:43;;;;;;;3.50;1.90;;;;;;;25.43;38.28;99499.85;78051;1300;3052976;-64
2023/07/13 09:16:11;;;;;;;3.50;1.60;;;;;;;25.47;37.99;99500.84;78096;1296;3069165;-61
2023/07/13 09:18:41;;;;;;;6.30;2.00;;;;;;;25.33;38.33;99508.36;79423;1295;3013789;-63
2023/07/13 09:21:12;;;;;;;5.40;1.90;;;;;;;25.39;38.26;99513.98;78933;1294;3013835;-64
2023/07/13 09:23:41;;;;;;;4.30;1.80;;;;;;;25.48;38.36;99507.64;79686;1295;3013212;-62
2023/07/13 09:26:20;;;;;;;4.50;1.90;;;;;;;25.52;38.60;99503.75;78279;1296;3053000;-63
2023/07/13 09:28:51;;;;;;;7.60;2.00;;;;;;;25.54;38.46;99502.95;78315;1298;3049993;-62
2023/07/13 09:31:39;;;;;;;3.10;1.90;;;;;;;25.62;38.52;99500.39;79482;1298;3011624;-65
2023/07/13 09:34:11;;;;;;;2.40;1.80;;;;;;;25.71;38.06;99491.70;78303;1298;3053016;-64
2023/07/13 09:36:37;;;;;;;3.50;2.10;;;;;;;25.92;38.15;99490.09;79461;1295;3011582;-66
2023/07/13 09:39:08;;;;;;;7.20;2.10;;;;;;;25.98;37.85;99484.77;78361;1298;3028227;-64
2023/07/13 09:41:57;;;;;;;3.10;2.10;;;;;;;26.04;37.99;99487.06;79422;1295;3011618;-64
2023/07/13 09:44:49;;;;;;;2.50;1.90;;;;;;;25.98;37.32;99491.56;78195;1298;3050664;-63
2023/07/13 09:47:29;;;;;;;6.20;2.10;;;;;;;25.98;37.58;99475.99;78237;1298;3055979;-62
2023/07/13 09:49:58;;;;;;;5.00;1.90;;;;;;;26.15;38.10;99481.88;78236;1298;3050464;-64
2023/07/13 09:52:26;;;;;;;3.50;1.80;;;;;;;26.07;37.96;99485.52;79539;1298;3013630;-66
2023/07/13 09:54:58;;;;;;;4.40;1.90;;;;;;;26.21;38.23;99482.08;79397;1298;3012940;-63
2023/07/13 09:57:27;;;;;;;5.00;1.70;;;;;;;25.97;37.90;99488.16;78237;1298;3051959;-63
2023/07/13 09:59:56;;;;;;;2.80;1.90;;;;;;;26.03;38.09;99481.31;79504;1295;3013003;-64
2023/07/13 10:02:30;;;;;;;4.20;1.60;;;;;;;26.19;38.31;99477.16;79009;1295;3013839;-63
2023/07/13 10:05:04;;;;;;;5.80;1.90;;;;;;;26.28;37.79;99477.09;79810;1295;3011850;-61
2023/07/13 10:07:38;;;;;;;4.80;1.90;;;;;;;26.33;37.65;99466.41;78299;1298;3050789;-63
2023/07/13 10:10:17;;;;;;;5.60;2.30;;;;;;;26.48;37.90;99475.25;79702;1296;3013440;-61
2023/07/13 10:12:47;;;;;;;2.30;1.70;;;;;;;26.32;37.96;99475.74;78314;1300;3054529;-65
2023/07/13 10:15:19;;;;;;;6.80;1.80;;;;;;;26.32;38.48;99465.06;79496;1298;3013071;-64
2023/07/13 10:17:47;;;;;;;2.40;1.80;;;;;;;26.53;38.03;99452.70;78239;1300;3057443;-64
2023/07/13 10:20:13;;;;;;;4.90;2.00;;;;;;;26.70;38.34;99454.40;79565;1294;3021198;-65
2023/07/13 10:23:02;;;;;;;3.40;1.80;;;;;;;26.80;37.32;99458.28;79605;1296;3011868;-65
2023/07/13 10:25:35;;;;;;;3.00;1.80;;;;;;;26.69;37.12;99456.98;78159;1299;3054175;-64
2023/07/13 10:28:36;;;;;;;6.20;2.00;;;;;;;26.65;37.63;99445.33;79576;1295;3011522;-63
2023/07/13 10:31:05;;;;;;;4.60;1.90;;;;;;;26.74;37.93;99450.29;78442;1295;3068450;-63
2023/07/13 10:33:32;;;;;;;6.40;1.90;;;;;;;26.73;37.34;99453.83;79593;1295;3013693;-64
2023/07/13 10:36:13;;;;;;;4.50;2.00;;;;;;;26.70;37.87;99444.66;79516;1295;3011467;-65
2023/07/13 10:38:42;;;;;;;4.60;2.20;;;;;;;26.78;38.00;99438.79;78086;1295;3053899;-64
2023/07/13 10:41:15;;;;;;;5.40;2.00;;;;;;;26.82;38.23;99442.73;79469;1301;3013416;-65
2023/07/13 10:43:45;;;;;;;3.20;2.00;;;;;;;26.84;38.53;99438.88;78303;1295;3053427;-65
2023/07/13 10:46:14;;;;;;;10.80;2.40;;;;;;;27.23;38.31;99437.63;79616;1298;3013009;-64
2023/07/13 10:48:46;;;;;;;6.50;2.00;;;;;;;27.45;37.49;99437.48;78397;1295;3052172;-65
2023/07/13 10:51:14;;;;;;;6.20;2.20;;;;;;;27.43;37.13;99434.10;79528;1295;3012750;-64
2023/07/13 10:53:43;;;;;;;5.30;2.00;;;;;;;27.55;36.75;99426.98;78241;1298;3025766;-64
2023/07/13 10:56:12;;;;;;;7.20;2.30;;;;;;;27.72;36.98;99427.18;79598;1295;3013653;-67
2023/07/13 10:58:42;;;;;;;5.50;2.10;;;;;;;27.88;37.03;99424.04;79194;1295;3012721;-66
2023/07/13 11:01:11;;;;;;;4.00;2.50;;;;;;;28.07;36.78;99428.17;79476;1295;3013228;-66
2023/07/13 11:03:43;;;;;;;6.00;2.10;;;;;;;28.30;36.74;99428.87;78216;1300;3068736;-66
2023/07/13 11:06:24;;;;;;;5.10;2.10;;;;;;;28.30;35.91;99426.86;79571;1295;3013161;-68
2023/07/13 11:08:54;;;;;;;3.20;2.10;;;;;;;28.26;35.68;99420.35;78374;1301;3057143;-65
2023/07/13 11:11:23;;;;;;;6.20;2.40;;;;;;;28.07;35.86;99420.52;79586;1295;3013143;-69
2023/07/13 11:13:51;;;;;;;5.60;2.50;;;;;;;28.10;36.50;99423.27;78274;1300;3053235;-71
2023/07/13 11:16:18;;;;;;;9.20;2.70;;;;;;;28.19;36.33;99413.80;79813;1299;3012967;-66
2023/07/13 11:18:48;;;;;;;7.10;2.70;;;;;;;28.27;36.46;99414.61;79723;1299;3011909;-65
2023/07/13 11:21:26;;;;;;;9.80;2.80;;;;;;;28.18;36.52;99419.83;78237;1301;3070418;-64
2023/07/13 11:24:12;;;;;;;5.40;2.50;;;;;;;28.03;36.67;99425.34;78355;1301;3052731;-64
2023/07/13 11:26:58;;;;;;;4.50;2.40;;;;;;;28.05;36.31;99415.76;79519;1298;3057438;-62